Terminal Aerodrome Forecast
Issued by NWS Wilmington, OH

Current Version | Previous Version | Text Only | Print | Product List | Glossary Off
Versions: 1 2 3 4 5 6 7 8 9 10 11 12 13 14 15 16 17 18 19 20

000
FTUS41 KILN 161347 AAA
TAFDAY
TAF AMD
KDAY 161347Z 1614/1712 28010KT P6SM OVC022
     FM162300 31006KT P6SM BKN025
     FM170300 VRB03KT P6SM SCT025 SCT250=

USA.gov is the U.S. government's official web portal to all federal, state and local government web resources and services.